sensor_id;sensor_type;location;lat;lon;timestamp;P1;durP1;ratioP1;P2;durP2;ratioP2
58123;SDS011;46725;48.068;20.832;2022-11-15T00:02:22;79.55;;;25.17;;
58123;SDS011;46725;48.068;20.832;2022-11-15T00:04:48;88.82;;;25.35;;
58123;SDS011;46725;48.068;20.832;2022-11-15T00:07:14;122.13;;;26.35;;
58123;SDS011;46725;48.068;20.832;2022-11-15T00:09:40;70.53;;;23.55;;
58123;SDS011;46725;48.068;20.832;2022-11-15T00:12:06;73.88;;;22.77;;
58123;SDS011;46725;48.068;20.832;2022-11-15T00:14:32;70.78;;;23.73;;
58123;SDS011;46725;48.068;20.832;2022-11-15T00:16:58;118.05;;;25.15;;
58123;SDS011;46725;48.068;20.832;2022-11-15T00:19:24;122.55;;;24.00;;
58123;SDS011;46725;48.068;20.832;2022-11-15T00:21:50;120.25;;;23.45;;
58123;SDS011;46725;48.068;20.832;2022-11-15T00:24:16;98.18;;;24.90;;
58123;SDS011;46725;48.068;20.832;2022-11-15T00:26:42;96.95;;;23.83;;
58123;SDS011;46725;48.068;20.832;2022-11-15T00:29:08;64.70;;;24.58;;
58123;SDS011;46725;48.068;20.832;2022-11-15T00:31:35;75.50;;;24.58;;
58123;SDS011;46725;48.068;20.832;2022-11-15T00:34:01;86.45;;;24.63;;
58123;SDS011;46725;48.068;20.832;2022-11-15T00:36:27;84.72;;;25.80;;
58123;SDS011;46725;48.068;20.832;2022-11-15T00:38:53;90.72;;;24.75;;
58123;SDS011;46725;48.068;20.832;2022-11-15T00:41:19;71.18;;;23.83;;
58123;SDS011;46725;48.068;20.832;2022-11-15T00:43:45;90.75;;;23.40;;
58123;SDS011;46725;48.068;20.832;2022-11-15T00:46:11;75.38;;;22.80;;
58123;SDS011;46725;48.068;20.832;2022-11-15T00:48:38;95.45;;;24.25;;
58123;SDS011;46725;48.068;20.832;2022-11-15T00:51:04;72.63;;;23.35;;
58123;SDS011;46725;48.068;20.832;2022-11-15T00:53:30;71.25;;;21.90;;
58123;SDS011;46725;48.068;20.832;2022-11-15T00:55:56;71.95;;;20.67;;
58123;SDS011;46725;48.068;20.832;2022-11-15T00:58:22;57.03;;;20.65;;
58123;SDS011;46725;48.068;20.832;2022-11-15T01:00:48;61.70;;;20.48;;
58123;SDS011;46725;48.068;20.832;2022-11-15T01:03:14;55.22;;;18.27;;
58123;SDS011;46725;48.068;20.832;2022-11-15T01:05:40;49.13;;;16.52;;
58123;SDS011;46725;48.068;20.832;2022-11-15T01:08:06;54.58;;;16.30;;
58123;SDS011;46725;48.068;20.832;2022-11-15T01:10:36;58.60;;;17.65;;
58123;SDS011;46725;48.068;20.832;2022-11-15T01:13:03;75.18;;;19.55;;
58123;SDS011;46725;48.068;20.832;2022-11-15T01:15:29;58.63;;;18.10;;
58123;SDS011;46725;48.068;20.832;2022-11-15T01:17:55;68.07;;;18.52;;
58123;SDS011;46725;48.068;20.832;2022-11-15T01:20:21;68.13;;;20.92;;
58123;SDS011;46725;48.068;20.832;2022-11-15T01:22:47;49.35;;;20.20;;
58123;SDS011;46725;48.068;20.832;2022-11-15T01:25:13;78.60;;;21.67;;
58123;SDS011;46725;48.068;20.832;2022-11-15T01:27:39;69.88;;;23.05;;
58123;SDS011;46725;48.068;20.832;2022-11-15T01:30:05;73.63;;;22.35;;
58123;SDS011;46725;48.068;20.832;2022-11-15T01:32:31;82.88;;;21.55;;
58123;SDS011;46725;48.068;20.832;2022-11-15T01:34:57;76.35;;;23.30;;
58123;SDS011;46725;48.068;20.832;2022-11-15T01:37:23;78.53;;;22.98;;
58123;SDS011;46725;48.068;20.832;2022-11-15T01:39:49;66.22;;;24.75;;
58123;SDS011;46725;48.068;20.832;2022-11-15T01:42:15;73.70;;;23.55;;
58123;SDS011;46725;48.068;20.832;2022-11-15T01:44:49;101.18;;;23.30;;
58123;SDS011;46725;48.068;20.832;2022-11-15T01:47:16;77.57;;;22.75;;
58123;SDS011;46725;48.068;20.832;2022-11-15T01:49:50;55.70;;;21.70;;
58123;SDS011;46725;48.068;20.832;2022-11-15T01:52:20;59.05;;;21.25;;
58123;SDS011;46725;48.068;20.832;2022-11-15T01:54:50;61.03;;;19.38;;
58123;SDS011;46725;48.068;20.832;2022-11-15T01:57:19;60.67;;;20.52;;
58123;SDS011;46725;48.068;20.832;2022-11-15T01:59:45;52.50;;;21.05;;
58123;SDS011;46725;48.068;20.832;2022-11-15T02:02:11;73.25;;;19.80;;
58123;SDS011;46725;48.068;20.832;2022-11-15T02:04:45;60.33;;;19.75;;
58123;SDS011;46725;48.068;20.832;2022-11-15T02:07:13;58.00;;;21.30;;
58123;SDS011;46725;48.068;20.832;2022-11-15T02:09:39;63.83;;;20.77;;
58123;SDS011;46725;48.068;20.832;2022-11-15T02:12:05;85.63;;;22.45;;
58123;SDS011;46725;48.068;20.832;2022-11-15T02:14:32;69.63;;;19.92;;
58123;SDS011;46725;48.068;20.832;2022-11-15T02:17:13;62.22;;;19.85;;
58123;SDS011;46725;48.068;20.832;2022-11-15T02:32:56;51.17;;;18.58;;
58123;SDS011;46725;48.068;20.832;2022-11-15T02:37:55;62.22;;;19.70;;
58123;SDS011;46725;48.068;20.832;2022-11-15T02:42:55;80.43;;;18.15;;
58123;SDS011;46725;48.068;20.832;2022-11-15T02:45:44;45.05;;;16.35;;
58123;SDS011;46725;48.068;20.832;2022-11-15T02:48:11;48.75;;;17.52;;
58123;SDS011;46725;48.068;20.832;2022-11-15T02:50:38;60.35;;;17.88;;
58123;SDS011;46725;48.068;20.832;2022-11-15T02:53:04;56.22;;;18.00;;
58123;SDS011;46725;48.068;20.832;2022-11-15T02:55:31;50.70;;;18.63;;
58123;SDS011;46725;48.068;20.832;2022-11-15T03:00:26;54.67;;;17.33;;
58123;SDS011;46725;48.068;20.832;2022-11-15T03:10:26;60.60;;;17.77;;
58123;SDS011;46725;48.068;20.832;2022-11-15T03:15:43;40.03;;;18.05;;
58123;SDS011;46725;48.068;20.832;2022-11-15T03:18:21;56.28;;;17.05;;
58123;SDS011;46725;48.068;20.832;2022-11-15T03:20:51;51.88;;;18.52;;
58123;SDS011;46725;48.068;20.832;2022-11-15T03:23:18;53.28;;;18.02;;
58123;SDS011;46725;48.068;20.832;2022-11-15T03:25:45;55.63;;;18.17;;
58123;SDS011;46725;48.068;20.832;2022-11-15T03:28:15;42.58;;;17.38;;
58123;SDS011;46725;48.068;20.832;2022-11-15T03:30:42;41.63;;;18.17;;
58123;SDS011;46725;48.068;20.832;2022-11-15T03:33:09;59.97;;;18.02;;
58123;SDS011;46725;48.068;20.832;2022-11-15T03:35:40;69.32;;;18.00;;
58123;SDS011;46725;48.068;20.832;2022-11-15T03:41:20;70.95;;;19.83;;
58123;SDS011;46725;48.068;20.832;2022-11-15T03:46:04;58.00;;;20.00;;
58123;SDS011;46725;48.068;20.832;2022-11-15T03:48:35;69.88;;;19.85;;
58123;SDS011;46725;48.068;20.832;2022-11-15T03:51:03;54.78;;;19.83;;
58123;SDS011;46725;48.068;20.832;2022-11-15T03:53:29;53.80;;;20.27;;
58123;SDS011;46725;48.068;20.832;2022-11-15T03:55:56;84.57;;;20.83;;
58123;SDS011;46725;48.068;20.832;2022-11-15T03:58:22;61.83;;;19.27;;
58123;SDS011;46725;48.068;20.832;2022-11-15T04:00:49;48.80;;;19.73;;
58123;SDS011;46725;48.068;20.832;2022-11-15T04:03:15;61.83;;;19.73;;
58123;SDS011;46725;48.068;20.832;2022-11-15T04:05:41;59.13;;;19.55;;
58123;SDS011;46725;48.068;20.832;2022-11-15T04:08:07;103.65;;;20.08;;
58123;SDS011;46725;48.068;20.832;2022-11-15T04:10:33;64.07;;;21.33;;
58123;SDS011;46725;48.068;20.832;2022-11-15T04:12:59;56.08;;;19.40;;
58123;SDS011;46725;48.068;20.832;2022-11-15T04:15:25;50.72;;;19.20;;
58123;SDS011;46725;48.068;20.832;2022-11-15T04:17:55;61.90;;;19.17;;
58123;SDS011;46725;48.068;20.832;2022-11-15T04:20:22;76.55;;;20.17;;
58123;SDS011;46725;48.068;20.832;2022-11-15T04:23:09;70.63;;;20.48;;
58123;SDS011;46725;48.068;20.832;2022-11-15T04:25:54;61.45;;;18.20;;
58123;SDS011;46725;48.068;20.832;2022-11-15T04:28:21;56.97;;;19.58;;
58123;SDS011;46725;48.068;20.832;2022-11-15T04:30:47;70.07;;;18.30;;
58123;SDS011;46725;48.068;20.832;2022-11-15T04:33:13;60.70;;;17.73;;
58123;SDS011;46725;48.068;20.832;2022-11-15T04:35:39;67.40;;;17.48;;
58123;SDS011;46725;48.068;20.832;2022-11-15T04:38:06;86.72;;;20.45;;
58123;SDS011;46725;48.068;20.832;2022-11-15T04:40:34;73.80;;;19.05;;
58123;SDS011;46725;48.068;20.832;2022-11-15T04:43:00;57.50;;;19.80;;
58123;SDS011;46725;48.068;20.832;2022-11-15T04:45:26;69.43;;;18.02;;
58123;SDS011;46725;48.068;20.832;2022-11-15T04:47:52;65.25;;;18.73;;
58123;SDS011;46725;48.068;20.832;2022-11-15T04:50:18;71.88;;;21.45;;
58123;SDS011;46725;48.068;20.832;2022-11-15T04:52:50;70.25;;;19.55;;
58123;SDS011;46725;48.068;20.832;2022-11-15T04:55:16;72.00;;;18.77;;
58123;SDS011;46725;48.068;20.832;2022-11-15T04:57:42;53.05;;;20.65;;
58123;SDS011;46725;48.068;20.832;2022-11-15T05:00:09;68.45;;;20.90;;
58123;SDS011;46725;48.068;20.832;2022-11-15T05:02:36;60.50;;;19.17;;
58123;SDS011;46725;48.068;20.832;2022-11-15T05:05:21;71.75;;;20.88;;
58123;SDS011;46725;48.068;20.832;2022-11-15T05:07:47;61.65;;;19.27;;
58123;SDS011;46725;48.068;20.832;2022-11-15T05:10:13;62.50;;;19.80;;
58123;SDS011;46725;48.068;20.832;2022-11-15T05:12:39;61.17;;;20.40;;
58123;SDS011;46725;48.068;20.832;2022-11-15T05:15:05;59.25;;;20.60;;
58123;SDS011;46725;48.068;20.832;2022-11-15T05:17:32;52.70;;;21.55;;
58123;SDS011;46725;48.068;20.832;2022-11-15T05:19:58;60.92;;;21.52;;
58123;SDS011;46725;48.068;20.832;2022-11-15T05:22:24;68.68;;;22.80;;
58123;SDS011;46725;48.068;20.832;2022-11-15T05:24:50;63.80;;;22.05;;
58123;SDS011;46725;48.068;20.832;2022-11-15T05:27:16;57.05;;;21.70;;
58123;SDS011;46725;48.068;20.832;2022-11-15T05:29:42;62.63;;;21.75;;
58123;SDS011;46725;48.068;20.832;2022-11-15T05:32:08;54.58;;;20.60;;
58123;SDS011;46725;48.068;20.832;2022-11-15T05:34:35;48.15;;;19.25;;
58123;SDS011;46725;48.068;20.832;2022-11-15T05:37:01;51.60;;;19.63;;
58123;SDS011;46725;48.068;20.832;2022-11-15T05:39:27;58.88;;;22.88;;
58123;SDS011;46725;48.068;20.832;2022-11-15T05:41:54;67.15;;;23.40;;
58123;SDS011;46725;48.068;20.832;2022-11-15T05:44:22;48.05;;;21.42;;
58123;SDS011;46725;48.068;20.832;2022-11-15T05:46:49;46.35;;;20.40;;
58123;SDS011;46725;48.068;20.832;2022-11-15T05:49:19;64.53;;;23.35;;
58123;SDS011;46725;48.068;20.832;2022-11-15T05:51:45;62.70;;;22.98;;
58123;SDS011;46725;48.068;20.832;2022-11-15T05:54:12;59.15;;;22.42;;
58123;SDS011;46725;48.068;20.832;2022-11-15T05:56:39;59.70;;;24.10;;
58123;SDS011;46725;48.068;20.832;2022-11-15T05:59:05;49.67;;;21.73;;
58123;SDS011;46725;48.068;20.832;2022-11-15T06:01:31;48.58;;;19.02;;
58123;SDS011;46725;48.068;20.832;2022-11-15T06:03:57;43.65;;;17.77;;
58123;SDS011;46725;48.068;20.832;2022-11-15T06:06:24;44.45;;;17.20;;
58123;SDS011;46725;48.068;20.832;2022-11-15T06:08:50;41.13;;;15.45;;
58123;SDS011;46725;48.068;20.832;2022-11-15T06:11:16;36.53;;;15.07;;
58123;SDS011;46725;48.068;20.832;2022-11-15T06:13:42;37.22;;;16.90;;
58123;SDS011;46725;48.068;20.832;2022-11-15T06:16:08;38.08;;;16.88;;
58123;SDS011;46725;48.068;20.832;2022-11-15T06:18:34;38.33;;;16.30;;
58123;SDS011;46725;48.068;20.832;2022-11-15T06:21:03;34.42;;;15.05;;
58123;SDS011;46725;48.068;20.832;2022-11-15T06:23:33;33.72;;;16.17;;
58123;SDS011;46725;48.068;20.832;2022-11-15T06:25:59;36.58;;;16.25;;
58123;SDS011;46725;48.068;20.832;2022-11-15T06:28:29;33.13;;;15.50;;
58123;SDS011;46725;48.068;20.832;2022-11-15T06:30:55;35.45;;;16.20;;
58123;SDS011;46725;48.068;20.832;2022-11-15T06:33:22;37.13;;;16.00;;
58123;SDS011;46725;48.068;20.832;2022-11-15T06:35:48;36.75;;;15.35;;
58123;SDS011;46725;48.068;20.832;2022-11-15T06:38:14;37.30;;;17.48;;
58123;SDS011;46725;48.068;20.832;2022-11-15T06:40:40;35.92;;;16.00;;
58123;SDS011;46725;48.068;20.832;2022-11-15T06:43:06;35.72;;;15.60;;
58123;SDS011;46725;48.068;20.832;2022-11-15T06:45:32;34.33;;;16.00;;
58123;SDS011;46725;48.068;20.832;2022-11-15T06:47:58;36.08;;;16.27;;
58123;SDS011;46725;48.068;20.832;2022-11-15T06:50:24;33.03;;;15.82;;
58123;SDS011;46725;48.068;20.832;2022-11-15T06:52:51;29.38;;;13.95;;
58123;SDS011;46725;48.068;20.832;2022-11-15T06:55:17;33.22;;;14.90;;
58123;SDS011;46725;48.068;20.832;2022-11-15T06:57:49;28.77;;;15.38;;
58123;SDS011;46725;48.068;20.832;2022-11-15T07:00:16;33.58;;;15.15;;
58123;SDS011;46725;48.068;20.832;2022-11-15T07:02:42;32.85;;;15.38;;
58123;SDS011;46725;48.068;20.832;2022-11-15T07:05:09;30.45;;;15.13;;
58123;SDS011;46725;48.068;20.832;2022-11-15T07:07:35;30.52;;;14.35;;
58123;SDS011;46725;48.068;20.832;2022-11-15T07:10:01;44.70;;;18.27;;
58123;SDS011;46725;48.068;20.832;2022-11-15T07:12:27;48.88;;;19.73;;
58123;SDS011;46725;48.068;20.832;2022-11-15T07:14:53;47.65;;;19.45;;
58123;SDS011;46725;48.068;20.832;2022-11-15T07:17:19;49.10;;;21.02;;
58123;SDS011;46725;48.068;20.832;2022-11-15T07:19:45;46.45;;;21.73;;
58123;SDS011;46725;48.068;20.832;2022-11-15T07:22:11;48.72;;;21.90;;
58123;SDS011;46725;48.068;20.832;2022-11-15T07:24:37;58.42;;;23.05;;
58123;SDS011;46725;48.068;20.832;2022-11-15T07:27:03;58.90;;;25.25;;
58123;SDS011;46725;48.068;20.832;2022-11-15T07:29:29;51.90;;;23.52;;
58123;SDS011;46725;48.068;20.832;2022-11-15T07:31:55;53.45;;;23.02;;
58123;SDS011;46725;48.068;20.832;2022-11-15T07:34:21;56.92;;;23.80;;
58123;SDS011;46725;48.068;20.832;2022-11-15T07:36:48;48.55;;;22.85;;
58123;SDS011;46725;48.068;20.832;2022-11-15T07:39:14;47.22;;;22.50;;
58123;SDS011;46725;48.068;20.832;2022-11-15T07:41:40;48.35;;;20.83;;
58123;SDS011;46725;48.068;20.832;2022-11-15T07:44:08;46.58;;;22.00;;
58123;SDS011;46725;48.068;20.832;2022-11-15T07:46:34;48.30;;;22.75;;
58123;SDS011;46725;48.068;20.832;2022-11-15T07:49:00;42.17;;;20.50;;
58123;SDS011;46725;48.068;20.832;2022-11-15T07:51:26;39.40;;;18.30;;
58123;SDS011;46725;48.068;20.832;2022-11-15T07:53:52;39.35;;;19.48;;
58123;SDS011;46725;48.068;20.832;2022-11-15T07:56:18;43.80;;;18.65;;
58123;SDS011;46725;48.068;20.832;2022-11-15T07:58:45;34.67;;;16.30;;
58123;SDS011;46725;48.068;20.832;2022-11-15T08:01:12;30.02;;;14.05;;
58123;SDS011;46725;48.068;20.832;2022-11-15T08:03:38;28.98;;;15.63;;
58123;SDS011;46725;48.068;20.832;2022-11-15T08:06:04;28.45;;;13.43;;
58123;SDS011;46725;48.068;20.832;2022-11-15T08:08:30;29.63;;;14.25;;
58123;SDS011;46725;48.068;20.832;2022-11-15T08:10:59;27.30;;;14.07;;
58123;SDS011;46725;48.068;20.832;2022-11-15T08:13:26;27.05;;;13.32;;
58123;SDS011;46725;48.068;20.832;2022-11-15T08:15:52;26.58;;;13.30;;
58123;SDS011;46725;48.068;20.832;2022-11-15T08:18:18;32.28;;;14.50;;
58123;SDS011;46725;48.068;20.832;2022-11-15T08:20:44;27.88;;;14.77;;
58123;SDS011;46725;48.068;20.832;2022-11-15T08:23:10;33.55;;;16.08;;
58123;SDS011;46725;48.068;20.832;2022-11-15T08:25:37;34.75;;;16.88;;
58123;SDS011;46725;48.068;20.832;2022-11-15T08:28:04;33.58;;;17.75;;
58123;SDS011;46725;48.068;20.832;2022-11-15T08:30:33;32.35;;;17.20;;
58123;SDS011;46725;48.068;20.832;2022-11-15T08:33:01;35.15;;;17.15;;
58123;SDS011;46725;48.068;20.832;2022-11-15T08:35:27;34.47;;;16.77;;
58123;SDS011;46725;48.068;20.832;2022-11-15T08:37:53;35.00;;;18.25;;
58123;SDS011;46725;48.068;20.832;2022-11-15T08:40:19;37.10;;;18.52;;
58123;SDS011;46725;48.068;20.832;2022-11-15T08:42:46;41.08;;;20.52;;
58123;SDS011;46725;48.068;20.832;2022-11-15T08:45:12;37.17;;;18.83;;
58123;SDS011;46725;48.068;20.832;2022-11-15T08:47:38;39.80;;;18.73;;
58123;SDS011;46725;48.068;20.832;2022-11-15T08:50:04;36.40;;;17.75;;
58123;SDS011;46725;48.068;20.832;2022-11-15T08:52:30;28.55;;;15.38;;
58123;SDS011;46725;48.068;20.832;2022-11-15T08:54:57;34.13;;;16.92;;
58123;SDS011;46725;48.068;20.832;2022-11-15T08:57:23;30.23;;;16.00;;
58123;SDS011;46725;48.068;20.832;2022-11-15T08:59:49;33.10;;;17.13;;
58123;SDS011;46725;48.068;20.832;2022-11-15T09:02:15;33.17;;;17.95;;
58123;SDS011;46725;48.068;20.832;2022-11-15T09:04:41;34.55;;;17.15;;
58123;SDS011;46725;48.068;20.832;2022-11-15T09:07:08;37.55;;;19.05;;
58123;SDS011;46725;48.068;20.832;2022-11-15T09:09:35;33.45;;;17.40;;
58123;SDS011;46725;48.068;20.832;2022-11-15T09:12:01;31.67;;;16.30;;
58123;SDS011;46725;48.068;20.832;2022-11-15T09:14:27;31.00;;;16.15;;
58123;SDS011;46725;48.068;20.832;2022-11-15T09:16:53;39.92;;;16.23;;
58123;SDS011;46725;48.068;20.832;2022-11-15T09:19:19;32.65;;;15.57;;
58123;SDS011;46725;48.068;20.832;2022-11-15T09:21:45;30.70;;;15.90;;
58123;SDS011;46725;48.068;20.832;2022-11-15T09:24:11;31.95;;;17.52;;
58123;SDS011;46725;48.068;20.832;2022-11-15T09:26:40;32.35;;;16.85;;
58123;SDS011;46725;48.068;20.832;2022-11-15T09:29:06;28.42;;;16.40;;
58123;SDS011;46725;48.068;20.832;2022-11-15T09:31:32;32.83;;;15.65;;
58123;SDS011;46725;48.068;20.832;2022-11-15T09:33:58;29.60;;;15.40;;
58123;SDS011;46725;48.068;20.832;2022-11-15T09:36:25;27.17;;;15.75;;
58123;SDS011;46725;48.068;20.832;2022-11-15T09:38:51;27.45;;;14.93;;
58123;SDS011;46725;48.068;20.832;2022-11-15T09:41:30;23.60;;;13.30;;
58123;SDS011;46725;48.068;20.832;2022-11-15T09:49:17;31.10;;;15.68;;
58123;SDS011;46725;48.068;20.832;2022-11-15T09:51:44;26.55;;;15.45;;
58123;SDS011;46725;48.068;20.832;2022-11-15T09:54:34;32.85;;;17.33;;
58123;SDS011;46725;48.068;20.832;2022-11-15T10:04:39;30.80;;;18.30;;
58123;SDS011;46725;48.068;20.832;2022-11-15T10:07:10;31.02;;;18.60;;
58123;SDS011;46725;48.068;20.832;2022-11-15T10:12:11;31.45;;;18.52;;
58123;SDS011;46725;48.068;20.832;2022-11-15T10:14:38;30.40;;;17.67;;
58123;SDS011;46725;48.068;20.832;2022-11-15T10:19:52;36.58;;;20.85;;
58123;SDS011;46725;48.068;20.832;2022-11-15T10:25:37;44.15;;;23.65;;
58123;SDS011;46725;48.068;20.832;2022-11-15T10:27:39;34.55;;;20.02;;
58123;SDS011;46725;48.068;20.832;2022-11-15T10:30:10;33.85;;;19.58;;
58123;SDS011;46725;48.068;20.832;2022-11-15T10:32:36;35.88;;;20.42;;
58123;SDS011;46725;48.068;20.832;2022-11-15T10:35:15;33.38;;;19.23;;
58123;SDS011;46725;48.068;20.832;2022-11-15T10:37:41;33.47;;;19.20;;
58123;SDS011;46725;48.068;20.832;2022-11-15T10:40:21;34.83;;;20.38;;
58123;SDS011;46725;48.068;20.832;2022-11-15T10:42:48;34.90;;;20.35;;
58123;SDS011;46725;48.068;20.832;2022-11-15T10:45:30;35.13;;;20.40;;
58123;SDS011;46725;48.068;20.832;2022-11-15T10:50:38;35.10;;;20.85;;
58123;SDS011;46725;48.068;20.832;2022-11-15T10:53:10;35.33;;;19.63;;
58123;SDS011;46725;48.068;20.832;2022-11-15T10:55:37;36.42;;;20.92;;
58123;SDS011;46725;48.068;20.832;2022-11-15T10:58:05;37.20;;;21.00;;
58123;SDS011;46725;48.068;20.832;2022-11-15T11:00:33;33.20;;;19.55;;
58123;SDS011;46725;48.068;20.832;2022-11-15T11:03:04;28.45;;;17.17;;
58123;SDS011;46725;48.068;20.832;2022-11-15T11:05:36;30.90;;;18.83;;
58123;SDS011;46725;48.068;20.832;2022-11-15T11:10:29;31.27;;;19.50;;
58123;SDS011;46725;48.068;20.832;2022-11-15T11:12:55;34.60;;;21.40;;
58123;SDS011;46725;48.068;20.832;2022-11-15T11:15:22;36.95;;;21.63;;
58123;SDS011;46725;48.068;20.832;2022-11-15T11:31:10;35.50;;;20.88;;
58123;SDS011;46725;48.068;20.832;2022-11-15T11:49:09;35.20;;;20.20;;
58123;SDS011;46725;48.068;20.832;2022-11-15T11:51:43;39.88;;;21.48;;
58123;SDS011;46725;48.068;20.832;2022-11-15T11:56:58;36.90;;;20.88;;
58123;SDS011;46725;48.068;20.832;2022-11-15T12:01:55;34.58;;;20.13;;
58123;SDS011;46725;48.068;20.832;2022-11-15T12:04:30;33.30;;;19.48;;
58123;SDS011;46725;48.068;20.832;2022-11-15T12:06:58;32.22;;;19.27;;
58123;SDS011;46725;48.068;20.832;2022-11-15T12:14:50;33.58;;;20.70;;
58123;SDS011;46725;48.068;20.832;2022-11-15T12:17:18;33.15;;;18.77;;
58123;SDS011;46725;48.068;20.832;2022-11-15T12:19:45;36.15;;;21.38;;
58123;SDS011;46725;48.068;20.832;2022-11-15T12:24:39;36.13;;;21.10;;
58123;SDS011;46725;48.068;20.832;2022-11-15T12:29:39;34.55;;;20.08;;
58123;SDS011;46725;48.068;20.832;2022-11-15T12:32:41;34.30;;;19.88;;
58123;SDS011;46725;48.068;20.832;2022-11-15T12:34:59;34.22;;;19.55;;
58123;SDS011;46725;48.068;20.832;2022-11-15T12:40:24;32.97;;;18.60;;
58123;SDS011;46725;48.068;20.832;2022-11-15T12:43:00;30.73;;;18.55;;
58123;SDS011;46725;48.068;20.832;2022-11-15T12:45:29;35.10;;;20.00;;
58123;SDS011;46725;48.068;20.832;2022-11-15T12:53:28;36.25;;;21.67;;
58123;SDS011;46725;48.068;20.832;2022-11-15T13:01:07;36.03;;;21.75;;
58123;SDS011;46725;48.068;20.832;2022-11-15T13:03:33;35.55;;;21.20;;
58123;SDS011;46725;48.068;20.832;2022-11-15T13:06:01;34.20;;;20.77;;
58123;SDS011;46725;48.068;20.832;2022-11-15T13:08:49;35.60;;;21.83;;
58123;SDS011;46725;48.068;20.832;2022-11-15T13:14:00;36.95;;;23.17;;
58123;SDS011;46725;48.068;20.832;2022-11-15T13:16:26;39.38;;;23.92;;
58123;SDS011;46725;48.068;20.832;2022-11-15T13:18:53;38.95;;;24.55;;
58123;SDS011;46725;48.068;20.832;2022-11-15T13:21:21;40.42;;;24.65;;
58123;SDS011;46725;48.068;20.832;2022-11-15T13:24:10;38.00;;;22.95;;
58123;SDS011;46725;48.068;20.832;2022-11-15T13:26:38;41.03;;;24.77;;
58123;SDS011;46725;48.068;20.832;2022-11-15T13:29:12;40.75;;;24.58;;
58123;SDS011;46725;48.068;20.832;2022-11-15T13:31:41;36.53;;;22.00;;
58123;SDS011;46725;48.068;20.832;2022-11-15T13:34:17;37.60;;;23.23;;
58123;SDS011;46725;48.068;20.832;2022-11-15T13:36:45;35.17;;;20.83;;
58123;SDS011;46725;48.068;20.832;2022-11-15T13:39:28;35.33;;;22.20;;
58123;SDS011;46725;48.068;20.832;2022-11-15T13:44:24;40.53;;;22.30;;
58123;SDS011;46725;48.068;20.832;2022-11-15T13:49:52;39.33;;;24.13;;
58123;SDS011;46725;48.068;20.832;2022-11-15T13:52:18;44.35;;;25.65;;
58123;SDS011;46725;48.068;20.832;2022-11-15T13:57:15;41.20;;;23.27;;
58123;SDS011;46725;48.068;20.832;2022-11-15T13:59:48;37.08;;;21.85;;
58123;SDS011;46725;48.068;20.832;2022-11-15T14:02:16;33.10;;;21.00;;
58123;SDS011;46725;48.068;20.832;2022-11-15T14:05:24;35.42;;;20.23;;
58123;SDS011;46725;48.068;20.832;2022-11-15T14:07:32;33.15;;;20.05;;
58123;SDS011;46725;48.068;20.832;2022-11-15T14:10:16;38.08;;;21.52;;
58123;SDS011;46725;48.068;20.832;2022-11-15T14:12:50;31.48;;;21.25;;
58123;SDS011;46725;48.068;20.832;2022-11-15T14:15:33;34.15;;;20.48;;
58123;SDS011;46725;48.068;20.832;2022-11-15T14:17:59;37.03;;;22.17;;
58123;SDS011;46725;48.068;20.832;2022-11-15T14:23:03;38.83;;;23.42;;
58123;SDS011;46725;48.068;20.832;2022-11-15T14:25:30;38.88;;;23.55;;
58123;SDS011;46725;48.068;20.832;2022-11-15T14:28:12;37.08;;;22.83;;
58123;SDS011;46725;48.068;20.832;2022-11-15T14:30:40;38.35;;;22.27;;
58123;SDS011;46725;48.068;20.832;2022-11-15T14:35:53;44.92;;;27.33;;
58123;SDS011;46725;48.068;20.832;2022-11-15T14:38:21;48.67;;;28.83;;
58123;SDS011;46725;48.068;20.832;2022-11-15T14:40:47;46.90;;;25.83;;
58123;SDS011;46725;48.068;20.832;2022-11-15T14:43:13;45.17;;;25.90;;
58123;SDS011;46725;48.068;20.832;2022-11-15T14:45:39;46.17;;;28.48;;
58123;SDS011;46725;48.068;20.832;2022-11-15T14:48:06;44.05;;;28.23;;
58123;SDS011;46725;48.068;20.832;2022-11-15T14:50:33;51.95;;;29.80;;
58123;SDS011;46725;48.068;20.832;2022-11-15T14:52:59;45.17;;;28.02;;
58123;SDS011;46725;48.068;20.832;2022-11-15T14:55:29;46.53;;;27.95;;
58123;SDS011;46725;48.068;20.832;2022-11-15T14:57:57;46.17;;;28.95;;
58123;SDS011;46725;48.068;20.832;2022-11-15T15:00:23;46.97;;;29.00;;
58123;SDS011;46725;48.068;20.832;2022-11-15T15:02:50;46.80;;;28.98;;
58123;SDS011;46725;48.068;20.832;2022-11-15T15:05:18;51.20;;;28.88;;
58123;SDS011;46725;48.068;20.832;2022-11-15T15:07:45;47.95;;;28.33;;
58123;SDS011;46725;48.068;20.832;2022-11-15T15:10:11;51.03;;;29.88;;
58123;SDS011;46725;48.068;20.832;2022-11-15T15:12:38;51.50;;;30.83;;
58123;SDS011;46725;48.068;20.832;2022-11-15T15:15:04;54.97;;;31.85;;
58123;SDS011;46725;48.068;20.832;2022-11-15T15:17:30;106.13;;;53.20;;
58123;SDS011;46725;48.068;20.832;2022-11-15T15:19:56;109.18;;;55.45;;
58123;SDS011;46725;48.068;20.832;2022-11-15T15:22:22;63.72;;;35.67;;
58123;SDS011;46725;48.068;20.832;2022-11-15T15:24:52;84.50;;;44.83;;
58123;SDS011;46725;48.068;20.832;2022-11-15T15:27:18;96.95;;;53.45;;
58123;SDS011;46725;48.068;20.832;2022-11-15T15:29:44;101.90;;;52.92;;
58123;SDS011;46725;48.068;20.832;2022-11-15T15:32:10;104.47;;;47.83;;
58123;SDS011;46725;48.068;20.832;2022-11-15T15:34:38;102.95;;;48.40;;
58123;SDS011;46725;48.068;20.832;2022-11-15T15:39:47;94.28;;;45.03;;
58123;SDS011;46725;48.068;20.832;2022-11-15T15:42:13;134.55;;;68.40;;
58123;SDS011;46725;48.068;20.832;2022-11-15T15:44:39;139.25;;;68.18;;
58123;SDS011;46725;48.068;20.832;2022-11-15T15:47:12;160.13;;;86.93;;
58123;SDS011;46725;48.068;20.832;2022-11-15T15:49:39;115.72;;;64.25;;
58123;SDS011;46725;48.068;20.832;2022-11-15T15:52:05;95.07;;;49.10;;
58123;SDS011;46725;48.068;20.832;2022-11-15T15:54:31;99.68;;;49.83;;
58123;SDS011;46725;48.068;20.832;2022-11-15T15:56:57;90.15;;;45.72;;
58123;SDS011;46725;48.068;20.832;2022-11-15T15:59:23;92.53;;;44.97;;
58123;SDS011;46725;48.068;20.832;2022-11-15T16:01:50;88.05;;;42.95;;
58123;SDS011;46725;48.068;20.832;2022-11-15T16:04:16;92.43;;;45.40;;
58123;SDS011;46725;48.068;20.832;2022-11-15T16:06:42;62.45;;;34.45;;
58123;SDS011;46725;48.068;20.832;2022-11-15T16:09:13;52.90;;;31.65;;
58123;SDS011;46725;48.068;20.832;2022-11-15T16:11:40;53.50;;;33.05;;
58123;SDS011;46725;48.068;20.832;2022-11-15T16:14:07;57.45;;;34.80;;
58123;SDS011;46725;48.068;20.832;2022-11-15T16:16:33;56.97;;;34.17;;
58123;SDS011;46725;48.068;20.832;2022-11-15T16:18:59;59.45;;;35.30;;
58123;SDS011;46725;48.068;20.832;2022-11-15T16:21:26;58.90;;;34.05;;
58123;SDS011;46725;48.068;20.832;2022-11-15T16:23:52;53.20;;;30.85;;
58123;SDS011;46725;48.068;20.832;2022-11-15T16:26:24;52.45;;;29.90;;
58123;SDS011;46725;48.068;20.832;2022-11-15T16:28:50;52.60;;;30.33;;
58123;SDS011;46725;48.068;20.832;2022-11-15T16:31:17;58.05;;;32.75;;
58123;SDS011;46725;48.068;20.832;2022-11-15T16:33:45;59.72;;;33.63;;